Time;durP1;ratioP1;P1;durP2;ratioP2;P2;SDS_P1;SDS_P2;PMS_P1;PMS_P2;Temp;Humidity;BMP_temperature;BMP_pressure;BME280_temperature;BME280_humidity;BME280_pressure;Samples;Min_cycle;Max_cycle;Signal;HPM_P1;HPM_P2
2023/04/10 00:00:05;;;;;;;74.57;46.43;;;5.00;99.90;;;;;;5039354;28;20201;-84
2023/04/10 00:02:32;;;;;;;79.87;48.90;;;5.00;99.90;;;;;;5038358;28;20195;-83
2023/04/10 00:04:58;;;;;;;102.40;59.70;;;4.80;99.90;;;;;;5038911;28;20183;-82
2023/04/10 00:07:24;;;;;;;130.37;74.63;;;4.70;99.90;;;;;;5038837;28;20536;-82
2023/04/10 00:09:49;;;;;;;139.33;81.27;;;4.60;99.90;;;;;;5020897;28;20179;-82
2023/04/10 00:12:15;;;;;;;151.43;88.73;;;4.60;99.90;;;;;;5020275;28;20191;-81
2023/04/10 00:14:41;;;;;;;167.33;97.20;;;4.50;99.90;;;;;;5020499;28;20222;-81
2023/04/10 00:17:07;;;;;;;174.17;100.13;;;4.40;99.90;;;;;;5020769;28;20179;-82
2023/04/10 00:19:33;;;;;;;176.27;104.50;;;4.40;99.90;;;;;;5020530;28;20178;-83
2023/04/10 00:21:58;;;;;;;193.40;114.10;;;4.40;99.90;;;;;;5038796;28;20179;-82
2023/04/10 00:24:24;;;;;;;214.50;119.30;;;4.40;99.90;;;;;;5038639;28;20559;-83
2023/04/10 00:26:50;;;;;;;231.00;131.83;;;4.30;99.90;;;;;;5021256;28;20635;-82
2023/04/10 00:29:16;;;;;;;218.27;128.23;;;4.40;99.90;;;;;;5038628;28;20183;-82
2023/04/10 00:31:41;;;;;;;209.97;117.53;;;4.30;99.90;;;;;;5038386;28;20215;-82
2023/04/10 00:34:07;;;;;;;204.27;121.07;;;4.20;99.90;;;;;;5020757;28;20215;-82
2023/04/10 00:36:34;;;;;;;219.50;124.43;;;4.20;99.90;;;;;;5020859;28;20187;-82
2023/04/10 00:39:00;;;;;;;185.47;109.00;;;4.20;99.90;;;;;;5038545;28;20175;-82
2023/04/10 00:41:26;;;;;;;163.10;95.23;;;4.10;99.90;;;;;;5020720;28;20202;-82
2023/04/10 00:43:56;;;;;;;146.40;86.90;;;4.00;99.90;;;;;;5038844;28;20755;-84
2023/04/10 00:46:26;;;;;;;137.37;82.17;;;4.00;99.90;;;;;;5020621;28;20187;-85
2023/04/10 00:48:53;;;;;;;120.70;71.23;;;3.90;99.90;;;;;;5024491;28;20183;-85
2023/04/10 00:51:20;;;;;;;109.50;67.03;;;4.00;99.90;;;;;;5039622;28;20183;-84
2023/04/10 00:53:50;;;;;;;113.07;65.57;;;4.00;99.90;;;;;;5021487;28;20246;-85
2023/04/10 00:56:20;;;;;;;104.63;60.87;;;3.90;99.90;;;;;;5029314;28;20261;-84
2023/04/10 00:58:46;;;;;;;96.80;59.87;;;3.80;99.90;;;;;;5059585;28;20175;-84
2023/04/10 01:01:12;;;;;;;109.50;65.27;;;3.80;99.90;;;;;;5046539;28;20244;-84
2023/04/10 01:03:40;;;;;;;117.77;68.37;;;3.80;99.90;;;;;;5039780;28;20242;-84
2023/04/10 01:06:25;;;;;;;120.67;66.57;;;3.80;99.90;;;;;;5022037;28;20725;-84
2023/04/10 01:09:13;;;;;;;122.40;70.27;;;3.70;99.90;;;;;;5022417;28;20182;-85
2023/04/10 01:12:04;;;;;;;145.40;85.90;;;3.70;99.90;;;;;;5021660;28;20179;-84
2023/04/10 01:14:32;;;;;;;177.07;103.83;;;3.80;99.90;;;;;;5027331;28;20307;-83
2023/04/10 01:17:29;;;;;;;183.53;109.17;;;3.80;99.90;;;;;;5027653;28;20174;-83
2023/04/10 01:20:07;;;;;;;201.90;116.20;;;3.80;99.90;;;;;;5024281;28;20175;-84
2023/04/10 01:22:49;;;;;;;208.00;118.63;;;3.80;99.90;;;;;;5024481;28;20262;-83
2023/04/10 01:25:26;;;;;;;201.90;119.67;;;3.80;99.90;;;;;;5043843;28;20155;-83
2023/04/10 01:28:28;;;;;;;196.73;116.87;;;3.80;99.90;;;;;;5041766;28;20210;-83
2023/04/10 01:30:58;;;;;;;210.93;122.37;;;3.90;99.90;;;;;;5040956;28;20167;-82
2023/04/10 01:33:44;;;;;;;197.60;114.50;;;3.90;99.90;;;;;;5023198;28;20203;-82
2023/04/10 01:36:12;;;;;;;194.37;115.57;;;4.00;99.90;;;;;;5040990;28;20186;-83
2023/04/10 01:38:43;;;;;;;213.57;118.33;;;4.10;99.90;;;;;;5023288;28;20222;-83
2023/04/10 01:41:08;;;;;;;191.63;116.03;;;4.00;99.90;;;;;;5041750;28;20675;-83
2023/04/10 01:43:36;;;;;;;185.17;110.63;;;4.00;99.90;;;;;;5041325;28;20273;-83
2023/04/10 01:46:02;;;;;;;184.53;111.50;;;3.90;99.90;;;;;;5023685;28;20640;-84
2023/04/10 01:48:29;;;;;;;185.70;111.83;;;3.80;99.90;;;;;;5023643;28;20591;-84
2023/04/10 01:50:55;;;;;;;183.60;111.60;;;3.80;99.90;;;;;;5022977;28;20186;-84
2023/04/10 01:53:22;;;;;;;196.67;111.17;;;3.70;99.90;;;;;;5040433;28;20682;-83
2023/04/10 01:55:50;;;;;;;190.40;109.10;;;3.70;99.90;;;;;;5022962;28;20179;-83
2023/04/10 01:58:16;;;;;;;179.63;105.67;;;3.70;99.90;;;;;;5022222;28;20194;-83
2023/04/10 02:00:42;;;;;;;172.70;105.47;;;3.70;99.90;;;;;;5040572;28;20199;-84
2023/04/10 02:03:11;;;;;;;175.50;106.50;;;3.70;99.90;;;;;;5040440;28;20230;-84
2023/04/10 02:06:01;;;;;;;180.57;105.80;;;3.70;99.90;;;;;;5040479;28;20258;-84
2023/04/10 02:08:39;;;;;;;192.37;107.47;;;3.60;99.90;;;;;;5022941;28;20197;-84
2023/04/10 02:11:30;;;;;;;185.93;109.93;;;3.60;99.90;;;;;;5040779;28;20155;-82
2023/04/10 02:14:00;;;;;;;183.40;104.07;;;3.60;99.90;;;;;;5022554;28;20223;-82
2023/04/10 02:16:30;;;;;;;169.30;105.17;;;3.70;99.90;;;;;;5039577;28;20160;-83
2023/04/10 02:18:57;;;;;;;184.17;107.20;;;3.70;99.90;;;;;;5039802;28;20175;-82
2023/04/10 02:21:23;;;;;;;188.63;108.47;;;3.70;99.90;;;;;;5038897;28;20176;-82
2023/04/10 02:23:49;;;;;;;172.27;108.07;;;3.70;99.90;;;;;;5039304;28;20686;-83
2023/04/10 02:26:15;;;;;;;184.90;107.20;;;3.60;99.90;;;;;;5039925;28;20546;-83
2023/04/10 02:28:40;;;;;;;171.70;102.97;;;3.70;99.90;;;;;;5021590;28;20286;-81
2023/04/10 02:31:06;;;;;;;174.23;105.33;;;3.70;99.90;;;;;;5021628;28;20266;-81
2023/04/10 02:33:32;;;;;;;180.20;103.57;;;3.70;99.90;;;;;;5021216;28;20198;-81
2023/04/10 02:36:00;;;;;;;173.27;104.17;;;3.70;99.90;;;;;;5021507;28;20179;-80
2023/04/10 02:38:26;;;;;;;172.67;106.10;;;3.70;99.90;;;;;;5040021;28;20604;-80
2023/04/10 02:40:52;;;;;;;179.73;103.50;;;3.60;99.90;;;;;;5040404;28;20171;-82
2023/04/10 02:43:17;;;;;;;168.03;100.37;;;3.60;99.90;;;;;;5022168;28;20249;-83
2023/04/10 02:45:43;;;;;;;171.53;104.13;;;3.60;99.90;;;;;;5021416;28;20266;-82
2023/04/10 02:48:10;;;;;;;164.00;99.47;;;3.70;99.90;;;;;;5021451;28;20636;-83
2023/04/10 02:50:36;;;;;;;166.47;101.10;;;3.70;99.90;;;;;;5021957;28;20179;-83
2023/04/10 02:53:01;;;;;;;174.93;103.27;;;3.80;99.90;;;;;;5039624;28;20217;-82
2023/04/10 02:55:27;;;;;;;164.73;99.27;;;3.80;99.90;;;;;;5021707;28;20274;-81
2023/04/10 02:57:53;;;;;;;166.50;99.07;;;3.80;99.90;;;;;;5039169;28;20172;-82
2023/04/10 03:00:19;;;;;;;162.53;101.27;;;3.80;99.90;;;;;;5021624;28;20577;-82
2023/04/10 03:02:44;;;;;;;161.57;98.93;;;3.70;99.90;;;;;;5039625;28;20222;-82
2023/04/10 03:05:10;;;;;;;160.00;98.63;;;3.70;99.90;;;;;;5021678;28;20190;-83
2023/04/10 03:07:36;;;;;;;162.03;99.90;;;3.80;99.90;;;;;;5021382;28;20183;-81
2023/04/10 03:10:02;;;;;;;170.80;101.20;;;3.80;99.90;;;;;;5021525;28;20670;-81
2023/04/10 03:12:27;;;;;;;164.00;100.43;;;3.80;99.90;;;;;;5021425;28;20203;-81
2023/04/10 03:14:53;;;;;;;164.20;98.03;;;3.70;99.90;;;;;;5021654;28;20222;-81
2023/04/10 03:17:19;;;;;;;171.73;99.80;;;3.60;99.90;;;;;;5020885;28;20179;-81
2023/04/10 03:19:45;;;;;;;168.60;98.70;;;3.60;99.90;;;;;;5037579;28;20167;-81
2023/04/10 03:22:10;;;;;;;168.93;100.10;;;3.50;99.90;;;;;;5038191;28;20538;-81
2023/04/10 03:24:39;;;;;;;170.10;101.77;;;3.40;99.90;;;;;;5020448;28;20681;-81
2023/04/10 03:27:05;;;;;;;165.90;99.30;;;3.40;99.90;;;;;;5038519;28;20175;-81
2023/04/10 03:29:31;;;;;;;158.27;98.30;;;3.30;99.90;;;;;;5038182;28;20205;-81
2023/04/10 03:31:57;;;;;;;174.40;103.63;;;3.30;99.90;;;;;;5038568;28;20202;-81
2023/04/10 03:34:22;;;;;;;160.50;95.60;;;3.20;99.90;;;;;;5038404;28;20199;-81
2023/04/10 03:36:48;;;;;;;161.13;97.07;;;3.30;99.90;;;;;;5038663;28;20171;-81
2023/04/10 03:39:14;;;;;;;161.40;96.20;;;3.30;99.90;;;;;;5038569;28;20566;-81
2023/04/10 03:41:40;;;;;;;169.30;97.87;;;3.30;99.90;;;;;;5021196;28;20209;-81
2023/04/10 03:44:06;;;;;;;162.17;97.33;;;3.30;99.90;;;;;;5038718;28;20690;-81
2023/04/10 03:46:31;;;;;;;160.37;97.77;;;3.30;99.90;;;;;;5038522;28;20262;-81
2023/04/10 03:48:57;;;;;;;158.17;93.20;;;3.30;99.90;;;;;;5021331;28;20186;-82
2023/04/10 03:51:23;;;;;;;160.87;96.67;;;3.30;99.90;;;;;;5038564;28;20233;-83
2023/04/10 03:53:50;;;;;;;165.47;99.10;;;3.30;99.90;;;;;;5038265;28;20256;-81
2023/04/10 03:56:16;;;;;;;171.43;99.27;;;3.30;99.90;;;;;;5038581;28;20171;-81
2023/04/10 03:58:42;;;;;;;165.87;96.77;;;3.30;99.90;;;;;;5038350;28;20175;-81
2023/04/10 04:01:08;;;;;;;159.93;94.97;;;3.20;99.90;;;;;;5020229;28;20289;-81
2023/04/10 04:03:33;;;;;;;149.67;93.57;;;3.20;99.90;;;;;;5042931;28;20195;-81
2023/04/10 04:05:59;;;;;;;166.17;99.53;;;3.20;99.90;;;;;;5047852;28;20191;-81
2023/04/10 04:08:25;;;;;;;163.13;96.17;;;3.30;99.90;;;;;;5023730;28;20183;-81
2023/04/10 04:10:50;;;;;;;154.03;93.43;;;3.30;99.90;;;;;;5038282;28;20179;-82
2023/04/10 04:13:16;;;;;;;154.23;91.30;;;3.30;99.90;;;;;;5037714;28;20605;-82
2023/04/10 04:15:42;;;;;;;164.30;95.57;;;3.30;99.90;;;;;;5037750;28;20203;-82
2023/04/10 04:18:09;;;;;;;152.90;95.00;;;3.20;99.90;;;;;;5038146;28;20182;-82
2023/04/10 04:20:35;;;;;;;156.33;96.87;;;3.20;99.90;;;;;;5038429;28;20239;-82
2023/04/10 04:23:00;;;;;;;152.97;94.67;;;3.10;99.90;;;;;;5019931;28;20226;-81
2023/04/10 04:25:26;;;;;;;156.03;90.53;;;3.00;99.90;;;;;;5037843;28;20186;-82
2023/04/10 04:27:52;;;;;;;152.10;93.40;;;3.00;99.90;;;;;;5038761;28;20171;-82
2023/04/10 04:30:17;;;;;;;156.47;90.83;;;3.00;99.90;;;;;;5022812;28;20233;-82
2023/04/10 04:32:43;;;;;;;149.90;87.53;;;3.00;99.90;;;;;;5028074;28;20218;-82
2023/04/10 04:35:10;;;;;;;151.37;91.60;;;3.00;99.90;;;;;;5033275;28;20213;-82
2023/04/10 04:37:35;;;;;;;143.70;87.77;;;3.10;99.90;;;;;;5047669;28;20184;-83
2023/04/10 04:40:02;;;;;;;144.30;85.07;;;3.10;99.90;;;;;;5044095;28;20171;-85
2023/04/10 04:42:27;;;;;;;143.37;83.97;;;3.00;99.90;;;;;;5022950;28;20306;-83
2023/04/10 04:44:53;;;;;;;141.37;85.87;;;2.90;99.90;;;;;;5022108;28;20651;-81
2023/04/10 04:47:19;;;;;;;144.33;84.60;;;2.90;99.90;;;;;;5021451;28;20275;-81
2023/04/10 04:49:45;;;;;;;141.87;83.13;;;2.90;99.90;;;;;;5021636;28;20191;-81
2023/04/10 04:52:10;;;;;;;139.23;85.63;;;2.90;99.90;;;;;;5022284;28;20186;-81
2023/04/10 04:54:36;;;;;;;149.10;90.60;;;2.90;99.90;;;;;;5040216;28;20211;-81
2023/04/10 04:57:02;;;;;;;137.47;83.63;;;2.80;99.90;;;;;;5021583;28;20176;-81
2023/04/10 04:59:27;;;;;;;147.30;86.77;;;2.90;99.90;;;;;;5021196;28;20209;-80
2023/04/10 05:01:53;;;;;;;141.23;84.40;;;2.90;99.90;;;;;;5021224;28;20182;-80
2023/04/10 05:04:19;;;;;;;129.33;78.37;;;2.90;99.90;;;;;;5021221;28;20203;-80
2023/04/10 05:06:46;;;;;;;129.70;78.17;;;3.00;99.90;;;;;;5038870;28;20214;-80
2023/04/10 05:09:12;;;;;;;129.50;77.33;;;3.00;99.90;;;;;;5021239;28;20270;-80
2023/04/10 05:11:38;;;;;;;130.10;77.10;;;3.10;99.90;;;;;;5022021;28;20566;-79
2023/04/10 05:14:04;;;;;;;129.90;78.23;;;3.10;99.90;;;;;;5023073;28;20253;-83
2023/04/10 05:16:30;;;;;;;129.17;75.87;;;3.10;99.90;;;;;;5022993;28;20195;-83
2023/04/10 05:18:56;;;;;;;126.67;77.67;;;3.20;99.90;;;;;;5022905;28;20190;-83
2023/04/10 05:21:21;;;;;;;135.57;82.60;;;3.10;99.90;;;;;;5022859;28;20246;-83
2023/04/10 05:23:47;;;;;;;124.47;77.80;;;3.10;99.90;;;;;;5022477;28;20199;-83
2023/04/10 05:26:13;;;;;;;123.13;75.83;;;3.00;99.90;;;;;;5023962;28;20551;-83
2023/04/10 05:28:38;;;;;;;119.63;72.23;;;3.10;99.90;;;;;;5024983;28;20276;-83
2023/04/10 05:31:04;;;;;;;115.60;69.60;;;3.20;99.90;;;;;;5041121;28;20185;-83
2023/04/10 05:33:32;;;;;;;122.40;72.10;;;3.20;99.90;;;;;;5022331;28;20203;-83
2023/04/10 05:35:58;;;;;;;118.97;70.97;;;3.30;99.90;;;;;;5021265;28;20225;-82
2023/04/10 05:38:24;;;;;;;115.70;68.70;;;3.30;99.90;;;;;;5038293;28;20179;-81
2023/04/10 05:40:49;;;;;;;111.07;68.07;;;3.40;99.90;;;;;;5019467;28;20179;-81
2023/04/10 05:43:15;;;;;;;109.57;65.63;;;3.50;99.90;;;;;;5019572;28;20277;-81
2023/04/10 05:45:44;;;;;;;107.33;65.27;;;3.50;99.90;;;;;;5019439;28;20707;-81
2023/04/10 05:48:09;;;;;;;105.83;63.83;;;3.40;99.90;;;;;;5037303;28;20179;-81
2023/04/10 05:50:35;;;;;;;102.10;64.00;;;3.50;99.90;;;;;;5019976;28;20248;-81
2023/04/10 05:53:01;;;;;;;103.80;62.37;;;3.60;99.90;;;;;;5019406;28;20213;-82
2023/04/10 05:55:30;;;;;;;103.00;62.13;;;3.60;99.90;;;;;;5019416;28;20211;-81
2023/04/10 05:57:55;;;;;;;102.20;63.53;;;3.70;99.90;;;;;;5019543;28;20312;-83
2023/04/10 06:00:21;;;;;;;107.77;63.87;;;3.70;99.90;;;;;;5037590;28;20592;-81
2023/04/10 06:02:47;;;;;;;96.97;61.70;;;3.80;99.90;;;;;;5019304;28;20209;-81
2023/04/10 06:05:12;;;;;;;102.83;64.50;;;3.90;99.90;;;;;;5019084;28;20615;-80
2023/04/10 06:07:38;;;;;;;112.57;65.13;;;4.00;99.90;;;;;;5019360;28;20190;-80
2023/04/10 06:10:05;;;;;;;105.17;63.60;;;3.90;99.90;;;;;;5037582;28;20167;-82
2023/04/10 06:12:30;;;;;;;106.23;62.03;;;4.00;99.90;;;;;;5037185;28;20207;-81
2023/04/10 06:14:56;;;;;;;101.33;60.37;;;4.00;99.90;;;;;;5036679;28;20230;-81
2023/04/10 06:17:24;;;;;;;104.67;61.13;;;4.00;99.90;;;;;;5018894;28;20183;-82
2023/04/10 06:19:50;;;;;;;93.33;58.53;;;4.10;99.90;;;;;;5018402;28;20552;-82
2023/04/10 06:22:15;;;;;;;99.07;60.60;;;4.20;99.90;;;;;;5018345;28;20186;-83
2023/04/10 06:24:41;;;;;;;98.60;59.87;;;4.30;99.90;;;;;;5018926;28;20190;-83
2023/04/10 06:27:07;;;;;;;101.77;62.23;;;4.40;99.90;;;;;;5036538;28;20512;-82
2023/04/10 06:29:33;;;;;;;94.33;58.43;;;4.50;99.90;;;;;;5018427;28;20228;-82
2023/04/10 06:31:59;;;;;;;92.17;59.20;;;4.70;99.90;;;;;;5036212;28;20179;-82
2023/04/10 06:34:26;;;;;;;92.47;56.00;;;4.90;99.90;;;;;;5036342;28;20253;-81
2023/04/10 06:36:51;;;;;;;88.93;52.77;;;5.10;99.90;;;;;;5018995;28;20175;-82
2023/04/10 06:39:17;;;;;;;90.10;54.97;;;5.30;99.90;;;;;;5036059;28;20681;-85
2023/04/10 06:41:43;;;;;;;75.03;49.27;;;5.50;99.90;;;;;;5017994;28;20163;-84
2023/04/10 06:44:08;;;;;;;73.57;47.77;;;5.80;99.90;;;;;;5017667;28;20199;-84
2023/04/10 06:46:34;;;;;;;67.40;43.90;;;6.10;99.90;;;;;;5017724;28;20183;-84
2023/04/10 06:49:00;;;;;;;71.67;45.73;;;6.40;99.90;;;;;;5035368;28;20329;-84
2023/04/10 06:51:26;;;;;;;66.30;41.13;;;6.70;99.90;;;;;;5039035;28;20179;-84
2023/04/10 06:53:51;;;;;;;62.77;41.77;;;7.00;99.90;;;;;;5019109;28;20234;-84
2023/04/10 06:56:18;;;;;;;63.13;41.80;;;7.40;99.90;;;;;;5019011;28;20171;-84
2023/04/10 06:58:43;;;;;;;54.57;34.63;;;7.70;99.90;;;;;;5018557;28;20179;-84
2023/04/10 07:01:09;;;;;;;39.37;24.73;;;7.90;99.90;;;;;;5017555;28;20177;-84
2023/04/10 07:03:35;;;;;;;35.03;23.73;;;8.40;99.90;;;;;;5036187;28;20279;-81
2023/04/10 07:06:02;;;;;;;26.70;18.83;;;8.60;99.90;;;;;;5035658;28;20199;-81
2023/04/10 07:08:27;;;;;;;28.93;18.17;;;9.10;99.90;;;;;;5035933;28;20174;-81
2023/04/10 07:10:53;;;;;;;23.00;17.33;;;9.40;99.90;;;;;;5017697;28;20171;-79
2023/04/10 07:13:19;;;;;;;15.43;11.50;;;9.60;99.90;;;;;;5035303;28;20195;-78
2023/04/10 07:15:44;;;;;;;14.23;11.23;;;9.90;99.90;;;;;;5034905;28;20269;-78
2023/04/10 07:18:10;;;;;;;11.93;10.10;;;10.10;99.90;;;;;;5034710;28;20171;-78
2023/04/10 07:20:37;;;;;;;11.63;9.70;;;10.20;99.90;;;;;;5034807;28;20180;-78
2023/04/10 07:23:02;;;;;;;9.83;8.83;;;10.40;99.90;;;;;;5034371;28;20186;-78
2023/04/10 07:25:28;;;;;;;10.33;8.63;;;10.80;99.90;;;;;;5034862;28;20592;-78
2023/04/10 07:27:54;;;;;;;11.07;8.70;;;10.90;99.90;;;;;;5035453;28;20179;-78
2023/04/10 07:30:20;;;;;;;9.30;8.10;;;11.10;99.90;;;;;;5035450;28;20245;-78
2023/04/10 07:32:46;;;;;;;10.93;8.80;;;11.30;99.90;;;;;;5034802;28;20274;-78
2023/04/10 07:35:11;;;;;;;8.67;7.60;;;11.50;99.90;;;;;;5034942;28;20277;-78
2023/04/10 07:37:38;;;;;;;8.53;7.63;;;11.80;99.90;;;;;;5016974;28;20670;-78
2023/04/10 07:40:06;;;;;;;8.77;7.80;;;11.90;99.90;;;;;;5035258;28;20186;-78
2023/04/10 07:42:31;;;;;;;8.40;7.50;;;12.10;99.90;;;;;;5034618;28;20197;-78
2023/04/10 07:44:57;;;;;;;8.73;7.50;;;12.20;99.90;;;;;;5034191;28;20178;-78
2023/04/10 07:47:23;;;;;;;9.55;7.50;;;12.30;99.90;;;;;;5041840;28;20173;-78
2023/04/10 07:49:49;;;;;;;8.73;7.22;;;12.40;99.90;;;;;;5058243;28;20183;-78
2023/04/10 07:52:15;;;;;;;10.38;7.32;;;12.50;99.90;;;;;;5040647;28;20546;-81
2023/04/10 07:54:40;;;;;;;10.38;7.00;;;12.70;99.90;;;;;;5021094;28;20584;-79
2023/04/10 07:57:06;;;;;;;8.38;7.18;;;12.80;99.90;;;;;;5036453;28;20183;-79
2023/04/10 07:59:32;;;;;;;8.85;7.40;;;12.80;99.90;;;;;;5035978;28;20175;-81
2023/04/10 08:01:57;;;;;;;8.63;7.22;;;13.00;99.90;;;;;;5018596;28;20647;-81
2023/04/10 08:04:23;;;;;;;12.85;7.78;;;13.00;99.90;;;;;;5036866;28;20252;-79
2023/04/10 08:06:49;;;;;;;8.60;7.15;;;13.10;99.90;;;;;;5020538;28;20187;-79
2023/04/10 08:09:15;;;;;;;8.48;7.30;;;13.00;99.90;;;;;;5020730;28;20182;-79
2023/04/10 08:11:41;;;;;;;7.90;6.90;;;13.00;99.90;;;;;;5039345;28;20202;-79
2023/04/10 08:14:06;;;;;;;7.80;7.00;;;13.10;99.90;;;;;;5036823;28;20278;-79
2023/04/10 08:16:34;;;;;;;7.80;6.90;;;13.30;99.90;;;;;;5018289;28;20205;-80
2023/04/10 08:19:01;;;;;;;7.43;6.63;;;13.50;99.90;;;;;;5017449;28;20549;-81
2023/04/10 08:21:28;;;;;;;7.72;6.68;;;13.60;99.90;;;;;;5018147;28;20171;-80
2023/04/10 08:23:56;;;;;;;7.35;6.35;;;14.00;99.90;;;;;;5017822;28;20253;-80
2023/04/10 08:26:23;;;;;;;6.90;6.22;;;14.40;99.90;;;;;;5035311;28;20205;-80
2023/04/10 08:28:51;;;;;;;7.57;6.60;;;14.70;99.90;;;;;;5034699;28;20175;-81
2023/04/10 08:31:17;;;;;;;7.32;6.43;;;15.30;99.90;;;;;;5016757;28;20237;-81
2023/04/10 08:33:43;;;;;;;8.18;6.22;;;15.30;99.90;;;;;;5035171;28;20694;-82
2023/04/10 08:36:10;;;;;;;7.18;6.43;;;15.80;99.90;;;;;;5019073;28;20171;-80
2023/04/10 08:38:35;;;;;;;7.85;6.20;;;15.50;99.90;;;;;;5034779;28;20167;-81
2023/04/10 08:41:01;;;;;;;7.10;5.72;;;15.10;99.90;;;;;;5017028;28;20175;-81
2023/04/10 08:43:27;;;;;;;6.53;5.93;;;14.80;99.90;;;;;;5034541;28;20187;-79
2023/04/10 08:45:55;;;;;;;6.88;5.85;;;15.10;99.90;;;;;;5018507;28;20596;-79
2023/04/10 08:48:24;;;;;;;6.72;5.60;;;15.90;99.90;;;;;;5034373;28;20180;-81
2023/04/10 08:50:50;;;;;;;7.57;6.05;;;16.40;99.90;;;;;;5036153;28;20545;-82
2023/04/10 08:53:19;;;;;;;9.35;6.05;;;16.80;99.90;;;;;;5037460;28;20195;-82
2023/04/10 08:55:45;;;;;;;6.43;5.32;;;16.70;99.90;;;;;;5017207;28;20747;-81
2023/04/10 08:58:12;;;;;;;8.30;6.20;;;17.60;99.90;;;;;;5033817;28;20624;-80
2023/04/10 09:00:39;;;;;;;6.30;5.63;;;18.30;99.90;;;;;;5016196;28;20180;-81
2023/04/10 09:03:12;;;;;;;6.50;5.80;;;18.60;99.90;;;;;;5033843;28;20689;-80
2023/04/10 09:05:38;;;;;;;7.35;6.28;;;17.40;99.80;;;;;;5033572;28;20164;-80
2023/04/10 09:08:05;;;;;;;7.25;6.03;;;16.50;99.90;;;;;;5015731;28;20178;-81
2023/04/10 09:10:31;;;;;;;7.05;5.60;;;16.40;99.90;;;;;;5033406;28;20199;-80
2023/04/10 09:12:57;;;;;;;7.10;5.72;;;16.70;99.90;;;;;;5033791;28;20655;-80
2023/04/10 09:15:23;;;;;;;6.40;5.78;;;17.60;99.90;;;;;;5033464;28;20633;-81
2023/04/10 09:18:00;;;;;;;6.65;5.78;;;17.30;99.90;;;;;;5018686;28;20263;-80
2023/04/10 09:20:28;;;;;;;5.82;5.22;;;16.50;99.90;;;;;;5037283;28;20166;-80
2023/04/10 09:22:54;;;;;;;7.65;6.05;;;17.40;99.90;;;;;;5037392;28;20234;-81
2023/04/10 09:25:38;;;;;;;6.03;5.40;;;18.20;99.90;;;;;;5037395;28;20182;-80
2023/04/10 09:28:05;;;;;;;8.43;5.88;;;18.80;99.90;;;;;;5037334;28;20167;-81
2023/04/10 09:30:41;;;;;;;6.25;5.15;;;19.10;99.90;;;;;;5037473;28;20179;-81
2023/04/10 09:33:26;;;;;;;5.82;5.22;;;19.50;99.70;;;;;;5019352;28;20368;-81
2023/04/10 09:35:53;;;;;;;7.47;5.18;;;19.40;99.00;;;;;;5019321;28;20202;-81
2023/04/10 09:38:20;;;;;;;6.65;5.60;;;19.20;98.80;;;;;;5037257;28;20542;-80
2023/04/10 09:40:47;;;;;;;6.03;5.20;;;18.30;98.50;;;;;;5036906;28;20178;-81
2023/04/10 09:43:26;;;;;;;6.65;5.05;;;18.30;99.00;;;;;;5037252;28;20191;-81
2023/04/10 09:45:53;;;;;;;6.80;5.18;;;18.10;98.60;;;;;;5037404;28;20201;-81
2023/04/10 09:48:19;;;;;;;5.25;4.63;;;18.10;99.00;;;;;;5036865;28;20179;-81
2023/04/10 09:50:46;;;;;;;7.18;5.20;;;18.10;98.20;;;;;;5036888;28;20539;-81
2023/04/10 09:53:14;;;;;;;6.30;4.90;;;17.70;98.70;;;;;;5036982;28;20187;-81
2023/04/10 09:55:40;;;;;;;5.65;4.85;;;17.60;98.00;;;;;;5036819;28;20203;-81
2023/04/10 09:58:06;;;;;;;5.78;5.10;;;17.50;98.30;;;;;;5018776;28;20622;-81
2023/04/10 10:00:42;;;;;;;5.55;4.88;;;17.60;98.70;;;;;;5036727;28;20702;-80
2023/04/10 10:03:10;;;;;;;5.70;4.80;;;17.50;98.20;;;;;;5036583;28;20190;-80
2023/04/10 10:05:40;;;;;;;6.72;4.90;;;17.40;97.90;;;;;;5020514;28;20181;-84
2023/04/10 10:08:10;;;;;;;5.45;4.93;;;17.50;99.20;;;;;;5037554;28;20163;-83
2023/04/10 10:10:52;;;;;;;7.47;4.93;;;17.50;97.80;;;;;;5037481;28;20155;-83
2023/04/10 10:13:40;;;;;;;5.85;5.03;;;16.90;97.00;;;;;;5018965;28;20214;-82
2023/04/10 10:16:39;;;;;;;6.88;4.40;;;16.90;98.20;;;;;;5037493;28;20156;-81
2023/04/10 10:19:15;;;;;;;7.28;4.70;;;17.10;97.90;;;;;;5018931;28;20172;-80
2023/04/10 10:21:43;;;;;;;4.82;4.32;;;17.20;98.00;;;;;;5036733;28;20159;-81
2023/04/10 10:24:12;;;;;;;4.30;3.92;;;17.30;98.30;;;;;;5036759;28;20195;-87
2023/04/10 10:26:42;;;;;;;4.22;3.83;;;17.10;95.30;;;;;;5019740;28;20175;-83
2023/04/10 10:29:12;;;;;;;4.82;4.32;;;16.60;94.20;;;;;;5036649;28;20179;-83
2023/04/10 10:31:39;;;;;;;5.47;4.20;;;16.50;95.30;;;;;;5019860;28;20172;-83
2023/04/10 10:34:08;;;;;;;4.50;4.10;;;16.50;94.90;;;;;;5018646;28;20213;-83
2023/04/10 10:36:40;;;;;;;3.67;3.38;;;16.50;94.80;;;;;;5037715;28;20178;-83
2023/04/10 10:39:27;;;;;;;8.18;4.10;;;16.70;94.00;;;;;;5039279;28;20600;-83
2023/04/10 10:42:08;;;;;;;4.28;3.88;;;16.90;94.10;;;;;;5021334;28;20179;-83
2023/04/10 10:44:44;;;;;;;5.53;3.65;;;17.00;94.10;;;;;;5021310;28;20202;-83
2023/04/10 10:47:28;;;;;;;4.43;3.75;;;17.00;94.60;;;;;;5021409;28;20190;-84
2023/04/10 10:50:01;;;;;;;4.05;3.65;;;17.10;94.10;;;;;;5037435;28;20159;-84
2023/04/10 10:52:48;;;;;;;4.13;3.83;;;16.80;93.30;;;;;;5018902;28;20183;-84
2023/04/10 10:55:23;;;;;;;5.15;3.50;;;16.90;93.20;;;;;;5019132;28;20203;-84
2023/04/10 10:57:51;;;;;;;3.70;3.40;;;16.90;93.50;;;;;;5018949;28;20209;-82
2023/04/10 11:00:17;;;;;;;3.80;3.40;;;16.60;92.70;;;;;;5019648;28;20313;-82
2023/04/10 11:02:43;;;;;;;3.75;3.42;;;16.60;93.40;;;;;;5038517;28;20210;-82
2023/04/10 11:05:09;;;;;;;3.92;3.35;;;16.60;93.00;;;;;;5019139;28;20175;-82
2023/04/10 11:07:58;;;;;;;4.07;3.67;;;16.70;92.50;;;;;;5036435;28;20159;-83
2023/04/10 11:11:03;;;;;;;3.45;3.15;;;16.80;93.00;;;;;;5006459;28;20187;-84
2023/04/10 11:13:29;;;;;;;3.92;3.63;;;17.10;93.00;;;;;;4996359;28;20232;-80
2023/04/10 11:16:00;;;;;;;3.90;3.50;;;17.00;91.90;;;;;;5018351;28;20293;-80
2023/04/10 11:18:44;;;;;;;3.80;3.20;;;17.00;92.50;;;;;;5037115;28;20151;-82
2023/04/10 11:21:15;;;;;;;3.85;3.55;;;17.00;92.70;;;;;;5037548;28;20178;-83
2023/04/10 11:23:50;;;;;;;3.70;3.33;;;17.20;92.40;;;;;;5019871;28;20341;-80
2023/04/10 11:26:38;;;;;;;3.38;3.10;;;17.30;93.20;;;;;;5019830;28;20171;-76
2023/04/10 11:29:16;;;;;;;3.55;3.25;;;17.40;92.20;;;;;;5016889;28;20270;-77
2023/04/10 11:31:56;;;;;;;3.40;3.10;;;17.40;91.50;;;;;;5037375;28;20175;-77
2023/04/10 11:34:22;;;;;;;3.17;2.95;;;17.60;92.30;;;;;;5035885;28;20222;-77
2023/04/10 11:36:48;;;;;;;3.10;2.90;;;18.00;92.00;;;;;;5022014;28;20186;-80
2023/04/10 11:39:17;;;;;;;4.07;3.17;;;18.30;91.60;;;;;;5022727;28;20175;-79
2023/04/10 11:41:44;;;;;;;5.05;3.40;;;18.30;90.80;;;;;;5038540;28;20537;-80
2023/04/10 11:44:15;;;;;;;3.30;3.10;;;18.40;91.30;;;;;;5035756;28;20337;-80
2023/04/10 11:46:45;;;;;;;3.55;3.25;;;18.60;92.20;;;;;;5036951;28;20165;-80
2023/04/10 11:49:11;;;;;;;3.20;2.90;;;18.90;92.20;;;;;;5020136;28;20175;-80
2023/04/10 11:51:38;;;;;;;3.40;3.10;;;18.70;91.50;;;;;;5021587;28;20185;-79
2023/04/10 11:54:16;;;;;;;5.22;3.35;;;18.90;91.70;;;;;;5038756;28;20210;-77
2023/04/10 11:56:44;;;;;;;3.53;3.17;;;19.10;92.00;;;;;;5026453;28;20183;-77
2023/04/10 11:59:12;;;;;;;3.80;3.00;;;19.10;91.50;;;;;;4991255;28;20545;-78
2023/04/10 12:01:41;;;;;;;3.22;2.92;;;18.90;90.70;;;;;;5012657;28;20218;-79
2023/04/10 12:04:15;;;;;;;3.30;3.00;;;19.00;91.40;;;;;;5015287;28;20199;-79
2023/04/10 12:06:47;;;;;;;3.35;3.00;;;19.10;90.90;;;;;;5015602;28;20179;-77
2023/04/10 12:09:17;;;;;;;3.47;3.17;;;19.30;91.30;;;;;;5014049;28;20164;-77
2023/04/10 12:11:50;;;;;;;5.68;3.47;;;19.30;91.30;;;;;;5013635;28;20576;-77
2023/04/10 12:14:16;;;;;;;4.68;3.70;;;19.10;91.20;;;;;;5013763;28;20223;-77
2023/04/10 12:16:43;;;;;;;3.70;3.05;;;19.00;91.10;;;;;;5019229;28;20176;-80
2023/04/10 12:19:10;;;;;;;4.80;3.72;;;19.20;91.70;;;;;;4996015;28;20180;-79
2023/04/10 12:21:36;;;;;;;4.13;3.47;;;19.20;91.40;;;;;;5002674;28;20188;-79
2023/04/10 12:24:02;;;;;;;3.53;3.22;;;19.20;90.50;;;;;;5012242;28;20294;-78
2023/04/10 12:26:28;;;;;;;4.00;2.90;;;19.20;91.90;;;;;;4999122;28;20274;-80
2023/04/10 12:28:58;;;;;;;3.47;3.05;;;19.20;90.80;;;;;;5000227;28;20179;-80
2023/04/10 12:31:32;;;;;;;3.30;3.00;;;19.10;90.30;;;;;;5019695;28;20172;-80
2023/04/10 12:34:01;;;;;;;5.93;3.22;;;19.20;91.50;;;;;;5005824;28;20210;-79
2023/04/10 12:36:28;;;;;;;3.63;3.10;;;19.30;88.30;;;;;;4990609;28;20252;-79
2023/04/10 12:38:56;;;;;;;3.75;3.25;;;19.00;87.30;;;;;;5016655;28;20609;-80